sensor_id;sensor_type;location;lat;lon;timestamp;pressure;altitude;pressure_sealevel;temperature;humidity
64602;BME280;68371;42.630;23.192;2023-05-07T00:02:06;92558.97;;;8.74;82.74
64602;BME280;68371;42.630;23.192;2023-05-07T00:04:33;92580.47;;;8.88;83.35
64602;BME280;68371;42.630;23.192;2023-05-07T00:07:02;92578.91;;;8.87;83.34
64602;BME280;68371;42.630;23.192;2023-05-07T00:09:31;92580.94;;;8.81;83.50
64602;BME280;68371;42.630;23.192;2023-05-07T00:11:57;92573.63;;;8.75;83.55
64602;BME280;68371;42.630;23.192;2023-05-07T00:14:24;92579.38;;;8.68;83.77
64602;BME280;68371;42.630;23.192;2023-05-07T00:16:51;92569.50;;;8.65;83.32
64602;BME280;68371;42.630;23.192;2023-05-07T00:19:17;92557.38;;;8.60;83.10
64602;BME280;68371;42.630;23.192;2023-05-07T00:21:44;92565.47;;;8.68;83.76
64602;BME280;68371;42.630;23.192;2023-05-07T00:24:11;92567.34;;;8.67;83.64
64602;BME280;68371;42.630;23.192;2023-05-07T00:26:39;92566.44;;;8.63;83.97
64602;BME280;68371;42.630;23.192;2023-05-07T00:29:06;92568.47;;;8.57;84.11
64602;BME280;68371;42.630;23.192;2023-05-07T00:31:33;92554.69;;;8.48;84.34
64602;BME280;68371;42.630;23.192;2023-05-07T00:34:00;92564.06;;;8.49;84.60
64602;BME280;68371;42.630;23.192;2023-05-07T00:36:27;92571.34;;;8.44;84.69
64602;BME280;68371;42.630;23.192;2023-05-07T00:38:56;92569.63;;;8.39;84.37
64602;BME280;68371;42.630;23.192;2023-05-07T00:41:23;92564.72;;;8.37;84.40
64602;BME280;68371;42.630;23.192;2023-05-07T00:43:51;92565.03;;;8.36;84.87
64602;BME280;68371;42.630;23.192;2023-05-07T00:46:20;92569.22;;;8.28;84.30
64602;BME280;68371;42.630;23.192;2023-05-07T00:48:48;92572.16;;;8.27;83.88
64602;BME280;68371;42.630;23.192;2023-05-07T00:51:15;92571.25;;;8.22;83.47
64602;BME280;68371;42.630;23.192;2023-05-07T00:53:42;92529.88;;;7.86;84.12
64602;BME280;68371;42.630;23.192;2023-05-07T00:56:09;92547.22;;;7.99;84.81
64602;BME280;68371;42.630;23.192;2023-05-07T00:58:37;92571.00;;;8.15;84.89
64602;BME280;68371;42.630;23.192;2023-05-07T01:01:05;92567.13;;;8.13;84.93
64602;BME280;68371;42.630;23.192;2023-05-07T01:03:32;92572.13;;;8.06;85.40
64602;BME280;68371;42.630;23.192;2023-05-07T01:05:59;92566.13;;;8.05;85.55
64602;BME280;68371;42.630;23.192;2023-05-07T01:08:27;92571.97;;;8.02;85.59
64602;BME280;68371;42.630;23.192;2023-05-07T01:10:56;92566.63;;;7.90;85.92
64602;BME280;68371;42.630;23.192;2023-05-07T01:13:23;92563.25;;;7.89;86.34
64602;BME280;68371;42.630;23.192;2023-05-07T01:15:50;92568.34;;;7.86;86.71
64602;BME280;68371;42.630;23.192;2023-05-07T01:18:18;92567.44;;;7.81;86.98
64602;BME280;68371;42.630;23.192;2023-05-07T01:20:45;92570.03;;;7.81;86.69
64602;BME280;68371;42.630;23.192;2023-05-07T01:23:13;92566.97;;;7.79;86.52
64602;BME280;68371;42.630;23.192;2023-05-07T01:25:41;92566.97;;;7.79;86.39
64602;BME280;68371;42.630;23.192;2023-05-07T01:28:08;92567.47;;;7.73;86.63
64602;BME280;68371;42.630;23.192;2023-05-07T01:30:38;92571.44;;;7.70;86.75
64602;BME280;68371;42.630;23.192;2023-05-07T01:33:11;92569.31;;;7.63;87.02
64602;BME280;68371;42.630;23.192;2023-05-07T01:35:42;92569.00;;;7.65;87.03
64602;BME280;68371;42.630;23.192;2023-05-07T01:38:10;92565.31;;;7.66;87.01
64602;BME280;68371;42.630;23.192;2023-05-07T01:40:39;92562.41;;;7.59;87.10
64602;BME280;68371;42.630;23.192;2023-05-07T01:43:06;92563.19;;;7.59;86.93
64602;BME280;68371;42.630;23.192;2023-05-07T01:45:34;92560.09;;;7.57;86.55
64602;BME280;68371;42.630;23.192;2023-05-07T01:48:02;92537.06;;;7.42;86.86
64602;BME280;68371;42.630;23.192;2023-05-07T01:50:29;92556.44;;;7.50;87.13
64602;BME280;68371;42.630;23.192;2023-05-07T01:52:57;92556.44;;;7.50;86.93
64602;BME280;68371;42.630;23.192;2023-05-07T01:55:23;92554.00;;;7.45;87.31
64602;BME280;68371;42.630;23.192;2023-05-07T01:57:51;92556.16;;;7.42;87.46
64602;BME280;68371;42.630;23.192;2023-05-07T02:00:21;92549.22;;;7.38;87.33
64602;BME280;68371;42.630;23.192;2023-05-07T02:02:48;92546.63;;;7.38;87.29
64602;BME280;68371;42.630;23.192;2023-05-07T02:05:15;92549.41;;;7.33;87.75
64602;BME280;68371;42.630;23.192;2023-05-07T02:07:42;92536.19;;;7.29;87.51
64602;BME280;68371;42.630;23.192;2023-05-07T02:10:09;92539.72;;;7.33;87.33
64602;BME280;68371;42.630;23.192;2023-05-07T02:12:36;92536.94;;;7.38;87.04
64602;BME280;68371;42.630;23.192;2023-05-07T02:15:05;92530.47;;;7.36;87.67
64602;BME280;68371;42.630;23.192;2023-05-07T02:17:31;92524.34;;;7.32;87.53
64602;BME280;68371;42.630;23.192;2023-05-07T02:19:58;92524.22;;;7.28;87.49
64602;BME280;68371;42.630;23.192;2023-05-07T02:22:25;92526.50;;;7.30;87.28
64602;BME280;68371;42.630;23.192;2023-05-07T02:24:52;92513.59;;;7.25;87.22
64602;BME280;68371;42.630;23.192;2023-05-07T02:27:18;92524.50;;;7.27;87.41
64602;BME280;68371;42.630;23.192;2023-05-07T02:29:46;92523.16;;;7.20;87.53
64602;BME280;68371;42.630;23.192;2023-05-07T02:32:14;92531.28;;;7.19;87.84
64602;BME280;68371;42.630;23.192;2023-05-07T02:34:42;92529.44;;;7.19;87.48
64602;BME280;68371;42.630;23.192;2023-05-07T02:37:09;92532.69;;;7.16;87.87
64602;BME280;68371;42.630;23.192;2023-05-07T02:39:36;92524.69;;;7.13;88.16
64602;BME280;68371;42.630;23.192;2023-05-07T02:42:02;92525.44;;;7.13;87.69
64602;BME280;68371;42.630;23.192;2023-05-07T02:44:29;92503.81;;;6.95;87.85
64602;BME280;68371;42.630;23.192;2023-05-07T02:46:56;92519.47;;;7.04;87.85
64602;BME280;68371;42.630;23.192;2023-05-07T02:49:24;92525.16;;;6.97;88.23
64602;BME280;68371;42.630;23.192;2023-05-07T02:51:51;92528.56;;;6.98;88.44
64602;BME280;68371;42.630;23.192;2023-05-07T02:54:18;92528.56;;;6.98;88.74
64602;BME280;68371;42.630;23.192;2023-05-07T02:56:44;92525.16;;;6.97;88.81
64602;BME280;68371;42.630;23.192;2023-05-07T02:59:11;92533.63;;;6.94;88.49
64602;BME280;68371;42.630;23.192;2023-05-07T03:01:38;92534.69;;;6.93;88.13
64602;BME280;68371;42.630;23.192;2023-05-07T03:04:04;92530.09;;;6.90;88.63
64602;BME280;68371;42.630;23.192;2023-05-07T03:06:32;92523.50;;;6.84;88.81
64602;BME280;68371;42.630;23.192;2023-05-07T03:08:59;92535.16;;;6.87;88.89
64602;BME280;68371;42.630;23.192;2023-05-07T03:11:26;92533.75;;;6.89;88.56
64602;BME280;68371;42.630;23.192;2023-05-07T03:13:52;92543.59;;;6.92;88.30
64602;BME280;68371;42.630;23.192;2023-05-07T03:16:19;92539.00;;;6.89;88.23
64602;BME280;68371;42.630;23.192;2023-05-07T03:18:46;92539.91;;;6.93;88.23
64602;BME280;68371;42.630;23.192;2023-05-07T03:21:12;92535.44;;;6.85;88.50
64602;BME280;68371;42.630;23.192;2023-05-07T03:23:40;92541.31;;;6.82;88.46
64602;BME280;68371;42.630;23.192;2023-05-07T03:26:07;92548.53;;;6.76;88.64
64602;BME280;68371;42.630;23.192;2023-05-07T03:28:34;92549.16;;;6.73;89.04
64602;BME280;68371;42.630;23.192;2023-05-07T03:31:01;92535.31;;;6.64;88.97
64602;BME280;68371;42.630;23.192;2023-05-07T03:33:27;92556.81;;;6.78;89.11
64602;BME280;68371;42.630;23.192;2023-05-07T03:35:54;92560.66;;;6.72;89.27
64602;BME280;68371;42.630;23.192;2023-05-07T03:38:20;92557.88;;;6.69;89.57
64602;BME280;68371;42.630;23.192;2023-05-07T03:40:49;92555.44;;;6.72;89.56
64602;BME280;68371;42.630;23.192;2023-05-07T03:43:16;92544.97;;;6.55;89.45
64602;BME280;68371;42.630;23.192;2023-05-07T03:45:42;92559.56;;;6.65;89.54
64602;BME280;68371;42.630;23.192;2023-05-07T03:48:09;92570.03;;;6.73;89.37
64602;BME280;68371;42.630;23.192;2023-05-07T03:50:36;92566.50;;;6.69;89.61
64602;BME280;68371;42.630;23.192;2023-05-07T03:53:02;92566.97;;;6.71;89.94
64602;BME280;68371;42.630;23.192;2023-05-07T03:55:29;92564.50;;;6.66;90.14
64602;BME280;68371;42.630;23.192;2023-05-07T03:57:57;92568.31;;;6.69;90.43
64602;BME280;68371;42.630;23.192;2023-05-07T04:00:24;92568.78;;;6.71;90.48
64602;BME280;68371;42.630;23.192;2023-05-07T04:02:51;92577.06;;;6.73;90.15
64602;BME280;68371;42.630;23.192;2023-05-07T04:05:18;92576.16;;;6.69;90.32
64602;BME280;68371;42.630;23.192;2023-05-07T04:07:45;92563.72;;;6.66;90.40
64602;BME280;68371;42.630;23.192;2023-05-07T04:10:11;92585.84;;;6.77;90.67
64602;BME280;68371;42.630;23.192;2023-05-07T04:12:38;92586.59;;;6.69;90.65
64602;BME280;68371;42.630;23.192;2023-05-07T04:15:07;92600.44;;;6.78;91.10
64602;BME280;68371;42.630;23.192;2023-05-07T04:17:34;92604.91;;;6.77;91.22
64602;BME280;68371;42.630;23.192;2023-05-07T04:20:01;92598.47;;;6.84;91.86
64602;BME280;68371;42.630;23.192;2023-05-07T04:22:27;92607.97;;;6.88;92.07
64602;BME280;68371;42.630;23.192;2023-05-07T04:24:54;92604.59;;;6.88;92.23
64602;BME280;68371;42.630;23.192;2023-05-07T04:27:21;92608.13;;;6.92;92.93
64602;BME280;68371;42.630;23.192;2023-05-07T04:29:49;92606.13;;;6.97;93.25
64602;BME280;68371;42.630;23.192;2023-05-07T04:32:18;92615.03;;;7.05;93.60
64602;BME280;68371;42.630;23.192;2023-05-07T04:34:44;92616.91;;;7.05;93.80
64602;BME280;68371;42.630;23.192;2023-05-07T04:37:12;92585.53;;;6.87;93.77
64602;BME280;68371;42.630;23.192;2023-05-07T04:39:38;92617.03;;;7.17;94.28
64602;BME280;68371;42.630;23.192;2023-05-07T04:42:05;92615.06;;;7.22;95.08
64602;BME280;68371;42.630;23.192;2023-05-07T04:44:34;92616.13;;;7.30;96.08
64602;BME280;68371;42.630;23.192;2023-05-07T04:47:02;92617.19;;;7.38;96.79
64602;BME280;68371;42.630;23.192;2023-05-07T04:49:30;92616.09;;;7.48;97.14
64602;BME280;68371;42.630;23.192;2023-05-07T04:51:57;92608.59;;;7.46;97.03
64602;BME280;68371;42.630;23.192;2023-05-07T04:54:24;92612.09;;;7.59;96.59
64602;BME280;68371;42.630;23.192;2023-05-07T04:56:51;92622.69;;;7.71;97.41
64602;BME280;68371;42.630;23.192;2023-05-07T04:59:18;92624.50;;;7.79;97.40
64602;BME280;68371;42.630;23.192;2023-05-07T05:01:45;92615.72;;;7.93;97.24
64602;BME280;68371;42.630;23.192;2023-05-07T05:04:11;92617.38;;;7.97;97.23
64602;BME280;68371;42.630;23.192;2023-05-07T05:06:41;92622.59;;;8.06;96.49
64602;BME280;68371;42.630;23.192;2023-05-07T05:09:07;92626.06;;;8.19;95.99
64602;BME280;68371;42.630;23.192;2023-05-07T05:11:34;92620.47;;;8.29;95.17
64602;BME280;68371;42.630;23.192;2023-05-07T05:14:01;92613.88;;;8.32;94.89
64602;BME280;68371;42.630;23.192;2023-05-07T05:16:27;92581.41;;;8.24;94.59
64602;BME280;68371;42.630;23.192;2023-05-07T05:18:55;92613.78;;;8.58;94.28
64602;BME280;68371;42.630;23.192;2023-05-07T05:21:22;92617.81;;;8.76;94.95
64602;BME280;68371;42.630;23.192;2023-05-07T05:23:50;92622.38;;;8.88;94.21
64602;BME280;68371;42.630;23.192;2023-05-07T05:26:17;92615.66;;;8.99;94.18
64602;BME280;68371;42.630;23.192;2023-05-07T05:28:43;92605.44;;;9.07;93.15
64602;BME280;68371;42.630;23.192;2023-05-07T05:31:10;92568.13;;;8.89;92.64
64602;BME280;68371;42.630;23.192;2023-05-07T05:33:37;92619.25;;;9.37;92.64
64602;BME280;68371;42.630;23.192;2023-05-07T05:36:04;92614.06;;;9.49;93.03
64602;BME280;68371;42.630;23.192;2023-05-07T05:38:31;92594.47;;;9.47;89.47
64602;BME280;68371;42.630;23.192;2023-05-07T05:40:59;92618.53;;;9.82;89.76
64602;BME280;68371;42.630;23.192;2023-05-07T05:43:26;92623.81;;;9.94;90.18
64602;BME280;68371;42.630;23.192;2023-05-07T05:45:54;92626.56;;;10.10;90.87
64602;BME280;68371;42.630;23.192;2023-05-07T05:48:22;92618.47;;;10.28;90.86
64602;BME280;68371;42.630;23.192;2023-05-07T05:50:49;92610.13;;;10.34;89.10
64602;BME280;68371;42.630;23.192;2023-05-07T05:53:15;92624.00;;;10.47;87.95
64602;BME280;68371;42.630;23.192;2023-05-07T05:55:42;92620.94;;;10.57;86.21
64602;BME280;68371;42.630;23.192;2023-05-07T05:58:10;92620.59;;;10.71;87.34
64602;BME280;68371;42.630;23.192;2023-05-07T06:00:37;92624.53;;;10.90;86.75
64602;BME280;68371;42.630;23.192;2023-05-07T06:03:04;92621.00;;;10.98;86.74
64602;BME280;68371;42.630;23.192;2023-05-07T06:05:30;92625.34;;;11.18;88.31
64602;BME280;68371;42.630;23.192;2023-05-07T06:07:58;92624.56;;;11.30;83.32
64602;BME280;68371;42.630;23.192;2023-05-07T06:10:25;92618.38;;;11.38;82.53
64602;BME280;68371;42.630;23.192;2023-05-07T06:12:52;92617.44;;;11.59;83.27
64602;BME280;68371;42.630;23.192;2023-05-07T06:15:20;92616.53;;;11.67;83.77
64602;BME280;68371;42.630;23.192;2023-05-07T06:17:47;92605.94;;;11.79;82.91
64602;BME280;68371;42.630;23.192;2023-05-07T06:20:14;92619.59;;;11.97;84.18
64602;BME280;68371;42.630;23.192;2023-05-07T06:22:41;92601.59;;;11.99;85.23
64602;BME280;68371;42.630;23.192;2023-05-07T06:25:08;92620.88;;;12.19;80.94
64602;BME280;68371;42.630;23.192;2023-05-07T06:27:35;92620.72;;;12.28;80.75
64602;BME280;68371;42.630;23.192;2023-05-07T06:30:02;92616.06;;;12.37;79.33
64602;BME280;68371;42.630;23.192;2023-05-07T06:32:30;92610.94;;;12.45;78.38
64602;BME280;68371;42.630;23.192;2023-05-07T06:34:57;92607.88;;;12.58;76.06
64602;BME280;68371;42.630;23.192;2023-05-07T06:37:25;92605.16;;;12.55;76.59
64602;BME280;68371;42.630;23.192;2023-05-07T06:39:51;92603.53;;;12.66;78.78
64602;BME280;68371;42.630;23.192;2023-05-07T06:42:18;92603.22;;;12.87;76.82
64602;BME280;68371;42.630;23.192;2023-05-07T06:44:45;92600.44;;;12.96;75.07
64602;BME280;68371;42.630;23.192;2023-05-07T06:47:11;92593.81;;;13.06;73.66
64602;BME280;68371;42.630;23.192;2023-05-07T06:49:39;92599.25;;;13.13;72.88
64602;BME280;68371;42.630;23.192;2023-05-07T06:52:06;92593.19;;;13.28;73.44
64602;BME280;68371;42.630;23.192;2023-05-07T06:54:33;92595.41;;;13.26;76.88
64602;BME280;68371;42.630;23.192;2023-05-07T06:57:00;92592.66;;;13.38;73.70
64602;BME280;68371;42.630;23.192;2023-05-07T06:59:27;92590.13;;;13.46;73.85
64602;BME280;68371;42.630;23.192;2023-05-07T07:01:54;92594.84;;;13.56;74.86
64602;BME280;68371;42.630;23.192;2023-05-07T07:04:21;92600.69;;;13.65;78.31
64602;BME280;68371;42.630;23.192;2023-05-07T07:06:51;92598.72;;;13.81;74.83
64602;BME280;68371;42.630;23.192;2023-05-07T07:09:18;92592.94;;;13.95;75.26
64602;BME280;68371;42.630;23.192;2023-05-07T07:11:45;92596.59;;;14.10;77.30
64602;BME280;68371;42.630;23.192;2023-05-07T07:14:11;92578.69;;;14.00;73.65
64602;BME280;68371;42.630;23.192;2023-05-07T07:16:38;92585.78;;;14.19;74.16
64602;BME280;68371;42.630;23.192;2023-05-07T07:19:05;92590.13;;;14.31;74.05
64602;BME280;68371;42.630;23.192;2023-05-07T07:21:32;92587.84;;;14.29;71.97
64602;BME280;68371;42.630;23.192;2023-05-07T07:24:00;92586.59;;;14.46;74.56
64602;BME280;68371;42.630;23.192;2023-05-07T07:26:27;92588.19;;;14.51;74.27
64602;BME280;68371;42.630;23.192;2023-05-07T07:28:54;92597.69;;;14.55;72.95
64602;BME280;68371;42.630;23.192;2023-05-07T07:31:20;92586.59;;;14.69;73.71
64602;BME280;68371;42.630;23.192;2023-05-07T07:33:47;92586.38;;;14.81;73.73
64602;BME280;68371;42.630;23.192;2023-05-07T07:36:15;92590.56;;;14.82;70.34
64602;BME280;68371;42.630;23.192;2023-05-07T07:38:42;92591.94;;;14.99;69.89
64602;BME280;68371;42.630;23.192;2023-05-07T07:41:10;92595.72;;;14.98;68.28
64602;BME280;68371;42.630;23.192;2023-05-07T07:43:37;92597.06;;;15.15;71.98
64602;BME280;68371;42.630;23.192;2023-05-07T07:46:03;92599.44;;;15.24;67.56
64602;BME280;68371;42.630;23.192;2023-05-07T07:48:30;92609.78;;;15.36;68.07
64602;BME280;68371;42.630;23.192;2023-05-07T07:50:57;92604.66;;;15.47;65.63
64602;BME280;68371;42.630;23.192;2023-05-07T07:53:23;92605.41;;;15.48;64.88
64602;BME280;68371;42.630;23.192;2023-05-07T07:55:50;92608.22;;;15.62;64.42
64602;BME280;68371;42.630;23.192;2023-05-07T07:58:18;92599.13;;;15.63;64.43
64602;BME280;68371;42.630;23.192;2023-05-07T08:00:45;92602.59;;;15.67;63.90
64602;BME280;68371;42.630;23.192;2023-05-07T08:03:12;92603.38;;;15.71;65.87
64602;BME280;68371;42.630;23.192;2023-05-07T08:05:39;92603.06;;;15.73;66.27
64602;BME280;68371;42.630;23.192;2023-05-07T08:08:06;92601.25;;;15.80;66.67
64602;BME280;68371;42.630;23.192;2023-05-07T08:10:33;92599.44;;;15.88;66.71
64602;BME280;68371;42.630;23.192;2023-05-07T08:13:04;92598.72;;;15.91;66.79
64602;BME280;68371;42.630;23.192;2023-05-07T08:15:32;92598.00;;;15.94;65.85
64602;BME280;68371;42.630;23.192;2023-05-07T08:18:01;92601.50;;;16.06;68.48
64602;BME280;68371;42.630;23.192;2023-05-07T08:20:28;92597.84;;;16.17;65.61
64602;BME280;68371;42.630;23.192;2023-05-07T08:22:55;92573.19;;;16.13;64.97
64602;BME280;68371;42.630;23.192;2023-05-07T08:25:22;92587.81;;;16.41;65.46
64602;BME280;68371;42.630;23.192;2023-05-07T08:27:48;92561.66;;;16.39;65.29
64602;BME280;68371;42.630;23.192;2023-05-07T08:30:15;92576.69;;;16.73;66.10
64602;BME280;68371;42.630;23.192;2023-05-07T08:32:43;92592.00;;;16.90;64.19
64602;BME280;68371;42.630;23.192;2023-05-07T08:35:10;92590.97;;;17.06;63.84
64602;BME280;68371;42.630;23.192;2023-05-07T08:37:37;92589.94;;;17.28;60.39
64602;BME280;68371;42.630;23.192;2023-05-07T08:40:05;92584.28;;;17.37;63.52
64602;BME280;68371;42.630;23.192;2023-05-07T08:42:36;92594.22;;;17.54;55.21
64602;BME280;68371;42.630;23.192;2023-05-07T08:45:04;92587.00;;;17.55;60.38
64602;BME280;68371;42.630;23.192;2023-05-07T08:47:44;92589.75;;;17.76;60.91
64602;BME280;68371;42.630;23.192;2023-05-07T08:50:13;92581.47;;;17.89;61.66
64602;BME280;68371;42.630;23.192;2023-05-07T08:52:40;92587.56;;;18.04;58.80
64602;BME280;68371;42.630;23.192;2023-05-07T08:55:08;92553.72;;;17.86;59.22
64602;BME280;68371;42.630;23.192;2023-05-07T08:57:35;92574.69;;;18.20;59.58
64602;BME280;68371;42.630;23.192;2023-05-07T09:00:04;92569.75;;;18.40;58.62
64602;BME280;68371;42.630;23.192;2023-05-07T09:02:32;92573.94;;;18.48;58.12
64602;BME280;68371;42.630;23.192;2023-05-07T09:05:00;92573.56;;;18.53;58.48
64602;BME280;68371;42.630;23.192;2023-05-07T09:07:27;92568.63;;;18.41;57.47
64602;BME280;68371;42.630;23.192;2023-05-07T09:09:54;92576.25;;;18.39;57.09
64602;BME280;68371;42.630;23.192;2023-05-07T09:12:22;92578.47;;;18.37;57.37
64602;BME280;68371;42.630;23.192;2023-05-07T09:14:49;92570.91;;;18.42;56.84
64602;BME280;68371;42.630;23.192;2023-05-07T09:17:16;92577.75;;;18.40;55.91
64602;BME280;68371;42.630;23.192;2023-05-07T09:19:44;92548.47;;;18.15;56.81
64602;BME280;68371;42.630;23.192;2023-05-07T09:22:12;92575.84;;;18.33;57.33
64602;BME280;68371;42.630;23.192;2023-05-07T09:24:39;92559.47;;;18.06;57.21
64602;BME280;68371;42.630;23.192;2023-05-07T09:27:07;92568.59;;;18.27;58.19
64602;BME280;68371;42.630;23.192;2023-05-07T09:29:38;92541.63;;;18.14;57.45
64602;BME280;68371;42.630;23.192;2023-05-07T09:32:06;92570.16;;;18.42;56.44
64602;BME280;68371;42.630;23.192;2023-05-07T09:34:34;92564.44;;;18.40;55.52
64602;BME280;68371;42.630;23.192;2023-05-07T09:37:02;92575.47;;;18.46;52.04
64602;BME280;68371;42.630;23.192;2023-05-07T09:39:41;92572.78;;;18.53;53.70
64602;BME280;68371;42.630;23.192;2023-05-07T09:42:07;92565.56;;;18.60;53.62
64602;BME280;68371;42.630;23.192;2023-05-07T09:44:37;92573.19;;;18.66;52.57
64602;BME280;68371;42.630;23.192;2023-05-07T09:47:05;92562.91;;;18.71;53.64
64602;BME280;68371;42.630;23.192;2023-05-07T09:49:34;92565.97;;;18.88;51.02
64602;BME280;68371;42.630;23.192;2023-05-07T09:52:02;92558.00;;;18.84;52.50
64602;BME280;68371;42.630;23.192;2023-05-07T09:54:32;92532.13;;;18.81;53.90
64602;BME280;68371;42.630;23.192;2023-05-07T09:57:01;92552.63;;;18.98;53.59
64602;BME280;68371;42.630;23.192;2023-05-07T09:59:29;92561.75;;;18.97;53.60
64602;BME280;68371;42.630;23.192;2023-05-07T10:01:58;92557.19;;;19.09;53.72
64602;BME280;68371;42.630;23.192;2023-05-07T10:04:25;92553.34;;;19.20;52.83
64602;BME280;68371;42.630;23.192;2023-05-07T10:06:52;92554.84;;;19.21;52.57
64602;BME280;68371;42.630;23.192;2023-05-07T10:09:21;92563.16;;;19.49;54.99
64602;BME280;68371;42.630;23.192;2023-05-07T10:11:48;92551.59;;;19.80;49.23
64602;BME280;68371;42.630;23.192;2023-05-07T10:14:17;92522.25;;;19.88;49.32
64602;BME280;68371;42.630;23.192;2023-05-07T10:16:47;92539.19;;;20.19;47.05
64602;BME280;68371;42.630;23.192;2023-05-07T10:19:14;92539.78;;;20.41;49.79
64602;BME280;68371;42.630;23.192;2023-05-07T10:21:44;92529.38;;;20.54;46.54
64602;BME280;68371;42.630;23.192;2023-05-07T10:24:19;92537.31;;;20.68;46.79
64602;BME280;68371;42.630;23.192;2023-05-07T10:26:48;92534.03;;;20.91;46.93
64602;BME280;68371;42.630;23.192;2023-05-07T10:29:24;92508.44;;;20.97;42.58
64602;BME280;68371;42.630;23.192;2023-05-07T10:31:58;92517.44;;;21.11;41.08
64602;BME280;68371;42.630;23.192;2023-05-07T10:34:32;92521.59;;;21.15;41.45
64602;BME280;68371;42.630;23.192;2023-05-07T10:37:01;92517.16;;;21.36;41.80
64602;BME280;68371;42.630;23.192;2023-05-07T10:39:29;92523.53;;;21.49;42.68
64602;BME280;68371;42.630;23.192;2023-05-07T10:41:56;92513.91;;;21.55;41.50
64602;BME280;68371;42.630;23.192;2023-05-07T10:44:28;92516.53;;;21.59;42.65
64602;BME280;68371;42.630;23.192;2023-05-07T10:47:06;92522.56;;;21.29;42.29
64602;BME280;68371;42.630;23.192;2023-05-07T10:49:35;92514.53;;;20.98;39.76
64602;BME280;68371;42.630;23.192;2023-05-07T10:52:11;92514.66;;;20.84;42.87
64602;BME280;68371;42.630;23.192;2023-05-07T10:54:40;92520.00;;;20.84;42.01
64602;BME280;68371;42.630;23.192;2023-05-07T10:57:34;92517.41;;;20.76;42.09
64602;BME280;68371;42.630;23.192;2023-05-07T11:00:41;92521.16;;;20.83;42.52
64602;BME280;68371;42.630;23.192;2023-05-07T11:03:09;92504.69;;;20.91;41.89
64602;BME280;68371;42.630;23.192;2023-05-07T11:05:36;92520.72;;;21.26;42.66
64602;BME280;68371;42.630;23.192;2023-05-07T11:08:04;92517.19;;;21.67;42.51
64602;BME280;68371;42.630;23.192;2023-05-07T11:10:53;92516.00;;;21.98;40.13
64602;BME280;68371;42.630;23.192;2023-05-07T11:13:41;92514.41;;;22.05;38.82
64602;BME280;68371;42.630;23.192;2023-05-07T11:16:18;92514.28;;;22.12;38.78
64602;BME280;68371;42.630;23.192;2023-05-07T11:18:49;92511.94;;;21.90;37.98
64602;BME280;68371;42.630;23.192;2023-05-07T11:21:32;92502.97;;;21.73;38.94
64602;BME280;68371;42.630;23.192;2023-05-07T11:23:59;92511.06;;;21.70;40.36
64602;BME280;68371;42.630;23.192;2023-05-07T11:26:27;92503.91;;;21.90;41.82
64602;BME280;68371;42.630;23.192;2023-05-07T11:28:54;92469.50;;;22.16;41.33
64602;BME280;68371;42.630;23.192;2023-05-07T11:31:24;92494.50;;;22.56;39.67
64602;BME280;68371;42.630;23.192;2023-05-07T11:33:54;92503.69;;;22.55;38.59
64602;BME280;68371;42.630;23.192;2023-05-07T11:36:23;92500.38;;;22.48;37.75
64602;BME280;68371;42.630;23.192;2023-05-07T11:38:50;92493.56;;;22.67;40.40
64602;BME280;68371;42.630;23.192;2023-05-07T11:41:17;92495.06;;;22.91;38.44
64602;BME280;68371;42.630;23.192;2023-05-07T11:43:58;92496.28;;;23.30;39.60
64602;BME280;68371;42.630;23.192;2023-05-07T11:46:28;92482.50;;;23.68;36.08
64602;BME280;68371;42.630;23.192;2023-05-07T11:48:55;92489.69;;;24.08;37.90
64602;BME280;68371;42.630;23.192;2023-05-07T11:51:24;92480.69;;;23.82;35.07
64602;BME280;68371;42.630;23.192;2023-05-07T11:53:51;92496.72;;;23.65;35.40
64602;BME280;68371;42.630;23.192;2023-05-07T11:56:18;92476.25;;;23.55;35.35
64602;BME280;68371;42.630;23.192;2023-05-07T11:58:47;92488.16;;;23.90;34.89
64602;BME280;68371;42.630;23.192;2023-05-07T12:01:15;92499.75;;;24.04;34.71
64602;BME280;68371;42.630;23.192;2023-05-07T12:03:46;92486.53;;;24.13;32.85
64602;BME280;68371;42.630;23.192;2023-05-07T12:06:15;92481.34;;;24.55;33.34
64602;BME280;68371;42.630;23.192;2023-05-07T12:08:44;92473.53;;;24.61;31.64
64602;BME280;68371;42.630;23.192;2023-05-07T12:11:14;92474.94;;;24.65;32.25
64602;BME280;68371;42.630;23.192;2023-05-07T12:13:42;92478.44;;;24.78;36.11
64602;BME280;68371;42.630;23.192;2023-05-07T12:16:09;92479.03;;;25.15;34.23
64602;BME280;68371;42.630;23.192;2023-05-07T12:18:37;92474.31;;;25.62;32.53
64602;BME280;68371;42.630;23.192;2023-05-07T12:21:06;92468.53;;;25.63;31.45
64602;BME280;68371;42.630;23.192;2023-05-07T12:23:34;92456.00;;;25.44;30.08
64602;BME280;68371;42.630;23.192;2023-05-07T12:26:02;92469.38;;;25.73;31.11
64602;BME280;68371;42.630;23.192;2023-05-07T12:28:29;92458.97;;;26.01;30.71
64602;BME280;68371;42.630;23.192;2023-05-07T12:30:57;92451.59;;;26.39;32.04
64602;BME280;68371;42.630;23.192;2023-05-07T12:33:25;92453.38;;;26.68;31.56
64602;BME280;68371;42.630;23.192;2023-05-07T12:35:54;92451.75;;;26.36;29.36
64602;BME280;68371;42.630;23.192;2023-05-07T12:38:23;92457.56;;;26.22;30.20
64602;BME280;68371;42.630;23.192;2023-05-07T12:40:53;92458.00;;;26.20;29.87
64602;BME280;68371;42.630;23.192;2023-05-07T12:43:21;92450.13;;;25.74;30.51
64602;BME280;68371;42.630;23.192;2023-05-07T12:45:49;92453.69;;;25.84;31.54
64602;BME280;68371;42.630;23.192;2023-05-07T12:48:16;92414.50;;;25.45;30.38
64602;BME280;68371;42.630;23.192;2023-05-07T12:50:44;92443.91;;;25.77;31.19
64602;BME280;68371;42.630;23.192;2023-05-07T12:53:12;92436.22;;;25.37;30.62
64602;BME280;68371;42.630;23.192;2023-05-07T12:55:42;92438.97;;;25.21;31.64
64602;BME280;68371;42.630;23.192;2023-05-07T12:58:15;92428.56;;;25.36;29.65
64602;BME280;68371;42.630;23.192;2023-05-07T13:00:43;92424.94;;;25.81;30.17